Sycamore, Missouri
Current Conditions -  °F | °C
As of 10:53 AM on Thursday 30 Oct 2014 (Local Time) from KBPK Reporting Station
Clear Clear  
Wind Chill: 59°   Ceiling: Unl
Heat Index: 59°   Visibility: 10mi
Dew Point: 41°   Wind: 5mph
Humidity: 51%   Direction: NA
Pressure: 30.12"   Gusts: NA
Location:  36.5904°N, 92.2572°W
Report Text: KBPK 301553Z AUTO VRB04KT 10SM CLR 15/05 A3012 RMK AO2 SLP198 T01500050
Loading
Personal Weather Stations






























Interactive Weather Map
Tropical Storm Tracking
New forecast layout! Learn more

10-Day Weather Forecast

Advertisements
Track Severe Weather on mobile